Time;durP1;ratioP1;P1;durP2;ratioP2;P2;SDS_P1;SDS_P2;PMS_P1;PMS_P2;Temp;Humidity;BMP_temperature;BMP_pressure;BME280_temperature;BME280_humidity;BME280_pressure;Samples;Min_cycle;Max_cycle;Signal;HPM_P1;HPM_P2
2022/04/26 03:38:14;;;;;;;18.65;11.20;;;7.50;99.90;;;;;;5037037;28;20037;-73
2022/04/26 03:40:39;;;;;;;19.48;10.90;;;7.40;99.90;;;;;;5036592;28;20017;-74
2022/04/26 03:43:05;;;;;;;22.40;11.00;;;7.40;99.90;;;;;;5036659;28;20474;-73
2022/04/26 03:45:30;;;;;;;16.85;10.70;;;7.40;99.90;;;;;;5035685;28;20029;-74
2022/04/26 03:47:56;;;;;;;19.60;10.63;;;7.40;99.90;;;;;;5035907;28;20028;-74
2022/04/26 03:50:22;;;;;;;17.92;11.27;;;7.40;99.90;;;;;;5035822;28;20039;-74
2022/04/26 03:52:52;;;;;;;18.88;11.43;;;7.40;99.90;;;;;;5035659;28;20090;-74
2022/04/26 03:55:17;;;;;;;16.07;11.30;;;7.40;99.90;;;;;;5035836;28;20017;-74
2022/04/26 03:57:43;;;;;;;20.52;11.63;;;7.30;99.90;;;;;;5018683;28;20314;-74
2022/04/26 04:00:09;;;;;;;19.98;11.68;;;7.30;99.90;;;;;;5036214;28;20036;-74
2022/04/26 04:02:35;;;;;;;15.65;10.30;;;7.20;99.90;;;;;;5034980;28;20030;-75
2022/04/26 04:05:00;;;;;;;20.98;12.15;;;7.30;99.90;;;;;;5036539;28;20040;-74
2022/04/26 04:07:26;;;;;;;19.35;11.88;;;7.30;99.90;;;;;;5035945;28;20064;-74
2022/04/26 04:09:52;;;;;;;20.08;10.82;;;7.40;99.90;;;;;;5035684;28;20055;-74
2022/04/26 04:12:17;;;;;;;19.50;11.48;;;7.20;99.90;;;;;;5034195;28;20025;-74
2022/04/26 04:14:43;;;;;;;23.38;11.75;;;7.20;99.90;;;;;;5035701;28;20037;-74
2022/04/26 04:17:09;;;;;;;17.42;10.73;;;7.20;99.90;;;;;;5036018;28;20044;-73
2022/04/26 04:19:36;;;;;;;20.90;10.88;;;7.20;99.90;;;;;;5035418;28;20034;-74
2022/04/26 04:22:02;;;;;;;18.33;10.65;;;7.20;99.90;;;;;;5035760;28;20028;-74
2022/04/26 04:24:27;;;;;;;15.50;10.50;;;7.20;99.90;;;;;;5017492;28;20025;-74
2022/04/26 04:26:53;;;;;;;20.77;11.57;;;7.20;99.90;;;;;;5018184;28;20038;-74
2022/04/26 04:29:18;;;;;;;24.15;12.23;;;7.30;99.90;;;;;;5035738;28;20090;-75
2022/04/26 04:31:45;;;;;;;19.13;11.32;;;7.40;99.90;;;;;;5035612;28;20018;-74
2022/04/26 04:34:11;;;;;;;19.33;11.30;;;7.40;99.90;;;;;;5035756;28;20022;-74
2022/04/26 04:36:36;;;;;;;19.70;10.88;;;7.30;99.90;;;;;;5034465;28;20025;-74
2022/04/26 04:39:03;;;;;;;18.35;10.75;;;7.30;99.90;;;;;;5036569;28;20033;-74
2022/04/26 04:41:35;;;;;;;22.38;11.73;;;7.30;99.90;;;;;;5040684;28;20029;-74
2022/04/26 04:44:01;;;;;;;23.35;11.90;;;7.30;99.90;;;;;;5042268;28;20026;-74
2022/04/26 04:46:27;;;;;;;19.25;11.82;;;7.10;99.90;;;;;;5018067;28;20079;-75
2022/04/26 04:48:52;;;;;;;22.00;11.63;;;7.10;99.90;;;;;;5036017;28;20100;-74
2022/04/26 04:51:18;;;;;;;17.40;10.25;;;7.10;99.90;;;;;;5036224;28;20029;-74
2022/04/26 04:53:43;;;;;;;19.45;11.85;;;7.00;99.90;;;;;;5018154;28;20097;-73
2022/04/26 04:56:10;;;;;;;18.63;11.15;;;7.00;99.90;;;;;;5036097;28;20036;-73
2022/04/26 04:58:35;;;;;;;22.65;11.23;;;7.00;99.90;;;;;;5018715;28;20475;-74
2022/04/26 05:01:01;;;;;;;18.20;11.55;;;7.10;99.90;;;;;;5019021;28;20029;-75
2022/04/26 05:03:26;;;;;;;17.67;10.63;;;7.00;99.90;;;;;;5036430;28;20038;-74
2022/04/26 05:05:52;;;;;;;19.25;11.60;;;7.00;99.90;;;;;;5038580;28;20467;-74
2022/04/26 05:08:18;;;;;;;16.73;10.77;;;7.10;99.90;;;;;;5061080;22;20052;-51
2022/04/26 05:10:43;;;;;;;20.63;11.23;;;7.10;99.90;;;;;;5052480;28;20435;-50
2022/04/26 05:13:09;;;;;;;16.20;10.48;;;7.20;99.90;;;;;;5055840;28;20029;-51
2022/04/26 05:15:37;;;;;;;21.38;10.57;;;7.20;99.90;;;;;;5056130;28;20496;-49
2022/04/26 05:18:02;;;;;;;15.77;10.07;;;7.30;99.90;;;;;;5055840;28;20022;-48
2022/04/26 05:20:28;;;;;;;20.92;10.48;;;7.40;99.90;;;;;;5055721;28;20377;-50
2022/04/26 05:25:38;;;;;;;19.00;10.35;;;7.50;99.90;;;;;;5056093;28;20108;-51
2022/04/26 05:28:04;;;;;;;17.90;11.13;;;7.50;99.90;;;;;;5055806;28;20032;-51
2022/04/26 05:30:29;;;;;;;20.33;10.98;;;7.50;99.90;;;;;;5055369;28;20033;-50
2022/04/26 05:32:55;;;;;;;17.33;10.57;;;7.50;99.90;;;;;;5055668;28;20083;-51
2022/04/26 05:35:22;;;;;;;16.92;10.45;;;7.50;99.90;;;;;;5055358;28;20147;-52
2022/04/26 05:37:48;;;;;;;20.02;10.25;;;7.50;99.90;;;;;;5055450;28;20078;-49
2022/04/26 05:40:13;;;;;;;17.50;10.02;;;7.60;99.90;;;;;;5055135;28;20025;-47
2022/04/26 05:42:40;;;;;;;18.23;10.20;;;7.70;99.90;;;;;;5054914;28;20027;-49
2022/04/26 05:45:06;;;;;;;17.10;9.95;;;7.80;99.90;;;;;;5055218;28;20082;-48
2022/04/26 05:47:31;;;;;;;14.32;9.73;;;7.90;99.90;;;;;;5055067;28;20111;-49
2022/04/26 05:49:57;;;;;;;15.55;10.10;;;7.90;99.90;;;;;;5055071;28;20041;-49
2022/04/26 05:52:24;;;;;;;19.02;9.98;;;8.00;99.90;;;;;;5055348;28;20171;-52
2022/04/26 05:54:50;;;;;;;16.08;9.77;;;8.00;99.90;;;;;;5055052;28;20032;-53
2022/04/26 05:57:16;;;;;;;17.05;10.07;;;8.00;99.90;;;;;;5055083;28;20029;-49
2022/04/26 05:59:41;;;;;;;16.60;9.50;;;8.10;99.90;;;;;;5055101;28;20167;-48
2022/04/26 06:02:07;;;;;;;16.35;9.85;;;8.30;99.90;;;;;;5055051;28;20474;-51
2022/04/26 06:04:32;;;;;;;19.33;8.80;;;8.40;99.90;;;;;;5054580;28;20029;-49
2022/04/26 06:06:58;;;;;;;19.58;9.18;;;8.40;99.90;;;;;;5054460;28;20027;-51
2022/04/26 06:09:24;;;;;;;17.55;9.02;;;8.50;99.90;;;;;;5054790;28;20032;-52
2022/04/26 06:11:49;;;;;;;14.45;8.82;;;8.50;99.90;;;;;;5055019;28;20371;-51
2022/04/26 06:14:15;;;;;;;13.93;8.93;;;8.50;99.90;;;;;;5036639;28;20043;-48
2022/04/26 06:16:41;;;;;;;14.40;8.55;;;8.60;99.90;;;;;;5054813;28;20066;-50
2022/04/26 06:19:06;;;;;;;12.57;8.73;;;8.70;99.90;;;;;;5054653;28;20024;-48
2022/04/26 06:21:32;;;;;;;13.20;8.20;;;8.80;99.90;;;;;;5054792;28;20442;-49
2022/04/26 06:23:57;;;;;;;17.77;8.75;;;8.80;99.90;;;;;;5053407;28;20090;-47
2022/04/26 06:26:23;;;;;;;14.07;7.95;;;8.90;99.90;;;;;;5054371;28;20029;-53
2022/04/26 06:28:49;;;;;;;13.80;8.40;;;8.90;99.90;;;;;;5054210;28;20478;-47
2022/04/26 06:31:14;;;;;;;14.70;8.38;;;9.00;99.90;;;;;;5054170;28;20032;-51
2022/04/26 06:33:40;;;;;;;17.40;8.05;;;9.00;99.90;;;;;;5054493;28;20021;-52
2022/04/26 06:36:06;;;;;;;15.50;8.93;;;9.00;99.90;;;;;;5054537;28;20021;-51
2022/04/26 06:38:31;;;;;;;13.88;8.38;;;9.10;99.90;;;;;;5054730;28;20033;-50
2022/04/26 06:40:57;;;;;;;18.15;8.85;;;9.00;99.90;;;;;;5054238;28;20470;-50
2022/04/26 06:43:23;;;;;;;17.75;9.10;;;9.10;99.90;;;;;;5054369;28;20032;-48
2022/04/26 06:45:48;;;;;;;12.45;8.38;;;9.20;99.90;;;;;;5046278;28;20030;-52
2022/04/26 06:48:15;;;;;;;11.27;7.63;;;9.30;99.90;;;;;;5036170;28;20080;-49
2022/04/26 06:50:42;;;;;;;15.73;9.02;;;9.40;99.90;;;;;;5045456;28;20056;-49
2022/04/26 06:53:08;;;;;;;14.30;9.20;;;9.50;99.90;;;;;;5036128;28;20017;-49
2022/04/26 06:55:34;;;;;;;13.82;8.13;;;9.60;99.90;;;;;;5034887;28;20113;-48
2022/04/26 06:58:00;;;;;;;13.70;8.85;;;9.80;99.90;;;;;;5036114;28;20032;-48
2022/04/26 07:00:26;;;;;;;13.50;8.65;;;9.90;99.90;;;;;;5046553;28;20386;-49
2022/04/26 07:02:52;;;;;;;12.35;7.78;;;10.10;99.90;;;;;;5036522;28;20451;-47
2022/04/26 07:05:18;;;;;;;19.25;7.35;;;10.30;99.90;;;;;;5036361;28;20036;-48
2022/04/26 07:07:44;;;;;;;11.63;7.35;;;10.40;99.90;;;;;;5035808;28;20140;-49
2022/04/26 07:10:10;;;;;;;15.35;8.05;;;10.50;99.90;;;;;;5035488;28;20048;-51
2022/04/26 07:12:36;;;;;;;10.38;7.38;;;10.70;99.90;;;;;;5047062;28;20029;-48
2022/04/26 07:15:03;;;;;;;11.85;8.10;;;10.90;99.90;;;;;;5035692;28;20029;-48
2022/04/26 07:17:29;;;;;;;12.25;8.10;;;10.90;99.90;;;;;;5034677;28;20033;-47
2022/04/26 07:19:57;;;;;;;11.13;7.38;;;11.00;99.90;;;;;;5035631;28;20033;-48
2022/04/26 07:22:23;;;;;;;14.48;7.90;;;11.20;99.90;;;;;;5043930;28;20032;-49
2022/04/26 07:24:48;;;;;;;11.95;8.43;;;11.50;99.90;;;;;;5055833;28;20025;-49
2022/04/26 07:27:16;;;;;;;10.10;7.45;;;11.80;99.90;;;;;;5051145;28;20036;-49
2022/04/26 07:29:43;;;;;;;13.00;7.72;;;12.00;99.90;;;;;;5051767;28;20387;-50
2022/04/26 07:32:09;;;;;;;12.00;7.47;;;12.20;99.90;;;;;;5049222;28;20028;-49
2022/04/26 07:34:35;;;;;;;12.88;7.60;;;12.40;99.90;;;;;;5050656;28;20116;-51
2022/04/26 07:37:04;;;;;;;9.07;7.07;;;12.70;99.90;;;;;;5052734;28;20064;-51
2022/04/26 07:39:32;;;;;;;11.00;7.60;;;12.80;99.90;;;;;;5053030;28;20032;-49
2022/04/26 07:41:57;;;;;;;13.70;7.60;;;12.80;99.90;;;;;;5053680;28;20090;-48
2022/04/26 07:44:23;;;;;;;11.32;7.20;;;12.70;99.90;;;;;;5044935;28;20477;-49
2022/04/26 07:46:50;;;;;;;10.23;7.65;;;12.60;99.90;;;;;;5015139;28;20063;-49
2022/04/26 07:49:19;;;;;;;14.48;8.00;;;12.50;99.90;;;;;;5032813;28;20022;-50
2022/04/26 07:51:44;;;;;;;13.13;8.15;;;12.60;99.90;;;;;;5032980;28;20021;-48
2022/04/26 07:54:10;;;;;;;11.98;8.32;;;12.70;99.90;;;;;;5045733;28;20547;-49
2022/04/26 07:56:36;;;;;;;12.68;7.93;;;12.50;99.90;;;;;;5052738;28;20025;-51
2022/04/26 07:59:03;;;;;;;13.32;8.43;;;12.60;99.90;;;;;;5052385;28;20086;-49
2022/04/26 08:01:32;;;;;;;16.17;8.57;;;12.60;99.90;;;;;;5034945;28;20438;-50
2022/04/26 08:03:59;;;;;;;12.45;8.65;;;12.70;99.90;;;;;;5052755;28;20036;-48
2022/04/26 08:06:25;;;;;;;12.27;8.45;;;12.70;99.90;;;;;;5052287;28;20020;-48
2022/04/26 08:08:51;;;;;;;14.77;8.35;;;12.60;99.90;;;;;;5052363;28;20096;-48
2022/04/26 08:11:16;;;;;;;12.88;8.38;;;12.60;99.90;;;;;;5052746;28;20021;-48
2022/04/26 08:13:43;;;;;;;12.05;7.97;;;12.60;99.90;;;;;;5042394;28;20131;-48
2022/04/26 08:16:10;;;;;;;12.23;7.85;;;12.60;99.90;;;;;;5030545;28;20030;-49
2022/04/26 08:18:36;;;;;;;14.85;8.57;;;12.60;99.90;;;;;;5030236;28;20085;-49
2022/04/26 08:21:05;;;;;;;13.07;8.13;;;12.70;99.90;;;;;;5031357;28;20108;-48
2022/04/26 08:23:31;;;;;;;12.45;8.07;;;12.80;99.90;;;;;;5014679;28;20052;-50
2022/04/26 08:28:41;;;;;;;17.05;8.55;;;13.10;99.90;;;;;;5032748;28;20464;-49
2022/04/26 08:31:06;;;;;;;11.38;7.88;;;13.20;99.90;;;;;;5032183;28;20038;-53
2022/04/26 08:33:34;;;;;;;11.25;8.23;;;13.30;99.90;;;;;;5032663;28;20117;-51
2022/04/26 08:36:01;;;;;;;14.77;8.18;;;13.50;99.90;;;;;;5032266;28;20029;-48
2022/04/26 08:38:26;;;;;;;15.27;8.65;;;13.40;99.90;;;;;;5032153;28;20515;-50
2022/04/26 08:40:52;;;;;;;13.45;8.20;;;13.60;99.90;;;;;;5032353;28;20113;-48
2022/04/26 08:43:17;;;;;;;15.25;7.82;;;13.70;99.90;;;;;;5032406;28;20036;-51
2022/04/26 08:45:46;;;;;;;12.18;8.40;;;13.70;99.90;;;;;;5033000;28;20104;-48
2022/04/26 08:50:59;;;;;;;13.82;8.27;;;13.80;99.90;;;;;;5036391;28;20087;-48
2022/04/26 08:53:26;;;;;;;10.63;7.30;;;13.80;99.90;;;;;;5036322;28;20435;-49
2022/04/26 08:55:53;;;;;;;15.57;7.75;;;13.80;99.90;;;;;;5036016;28;20099;-51
2022/04/26 08:58:20;;;;;;;11.00;7.03;;;13.90;99.90;;;;;;5035519;28;20017;-49
2022/04/26 09:01:11;;;;;;;10.88;7.65;;;14.00;99.90;;;;;;5036682;28;20029;-48
2022/04/26 09:03:54;;;;;;;8.93;7.10;;;14.00;99.90;;;;;;5053308;28;20028;-52
2022/04/26 09:06:33;;;;;;;11.70;8.05;;;14.10;99.90;;;;;;5055816;28;20025;-50
2022/04/26 09:09:18;;;;;;;13.18;8.20;;;14.20;99.90;;;;;;5055350;28;20398;-49
2022/04/26 09:11:45;;;;;;;14.02;8.93;;;14.20;99.90;;;;;;5055672;28;20059;-50
2022/04/26 09:14:32;;;;;;;14.52;9.10;;;14.30;99.90;;;;;;5055972;28;20025;-50
2022/04/26 09:17:04;;;;;;;12.85;8.65;;;14.30;99.90;;;;;;5053596;28;20037;-48
2022/04/26 09:19:52;;;;;;;15.68;8.88;;;14.30;99.90;;;;;;5055476;28;20482;-49
2022/04/26 09:22:25;;;;;;;11.82;8.00;;;14.20;99.90;;;;;;5055384;28;20108;-48
2022/04/26 09:25:05;;;;;;;11.68;8.40;;;14.30;99.90;;;;;;5055478;28;20048;-50
2022/04/26 09:27:37;;;;;;;13.68;9.60;;;14.50;99.90;;;;;;5047683;28;20032;-53
2022/04/26 09:30:10;;;;;;;13.40;8.02;;;14.50;99.90;;;;;;5055459;28;20040;-48
2022/04/26 09:32:47;;;;;;;10.85;8.05;;;14.50;99.90;;;;;;5054481;28;20036;-48
2022/04/26 09:35:22;;;;;;;11.77;8.15;;;14.50;99.90;;;;;;5055257;28;20021;-52
2022/04/26 09:37:48;;;;;;;12.98;7.95;;;14.50;99.90;;;;;;5036853;28;20435;-50
2022/04/26 09:40:13;;;;;;;15.43;7.95;;;14.50;99.90;;;;;;5054877;28;20037;-46
2022/04/26 09:42:39;;;;;;;14.40;8.32;;;14.50;99.90;;;;;;5055107;28;20427;-51
2022/04/26 09:45:07;;;;;;;12.82;8.30;;;14.60;99.90;;;;;;5054921;28;20365;-48
2022/04/26 09:47:40;;;;;;;15.07;8.48;;;14.60;99.90;;;;;;5055053;28;20091;-52
2022/04/26 09:50:16;;;;;;;13.90;8.70;;;14.80;99.90;;;;;;5054686;28;20371;-50
2022/04/26 09:52:42;;;;;;;14.63;7.53;;;15.00;99.90;;;;;;5036947;28;20028;-49
2022/04/26 09:55:09;;;;;;;9.88;6.90;;;15.00;99.90;;;;;;5054792;28;20029;-51
2022/04/26 09:57:37;;;;;;;12.88;7.85;;;15.00;99.90;;;;;;5053210;28;20104;-49
2022/04/26 10:00:11;;;;;;;13.60;6.90;;;15.10;99.90;;;;;;5054522;28;20398;-51
2022/04/26 10:02:50;;;;;;;11.40;6.88;;;15.20;99.90;;;;;;5054459;28;20436;-51
2022/04/26 10:05:21;;;;;;;10.85;7.30;;;15.40;99.90;;;;;;5054783;28;20148;-50
2022/04/26 10:07:48;;;;;;;11.57;7.72;;;15.50;99.90;;;;;;5054230;28;20036;-54
2022/04/26 10:10:14;;;;;;;9.70;6.93;;;15.50;99.90;;;;;;5054414;28;20029;-50
2022/04/26 10:12:42;;;;;;;12.63;8.40;;;15.50;99.90;;;;;;5054209;28;20039;-47
2022/04/26 10:15:09;;;;;;;12.75;8.35;;;15.50;99.90;;;;;;5054469;28;20024;-52
2022/04/26 10:17:34;;;;;;;11.75;7.50;;;15.50;99.90;;;;;;5054235;28;20041;-47
2022/04/26 10:20:00;;;;;;;10.30;7.22;;;15.50;99.90;;;;;;5053949;28;20098;-48
2022/04/26 10:22:54;;;;;;;12.80;7.20;;;15.50;99.90;;;;;;5054243;28;20025;-50
2022/04/26 10:25:21;;;;;;;11.23;7.28;;;15.60;99.90;;;;;;5054228;28;20388;-52
2022/04/26 10:28:23;;;;;;;12.02;7.65;;;15.70;99.90;;;;;;5053791;28;20032;-48
2022/04/26 10:30:56;;;;;;;13.98;7.63;;;15.60;99.90;;;;;;5053789;28;20032;-49
2022/04/26 10:33:44;;;;;;;12.48;7.55;;;15.60;99.90;;;;;;5053984;28;20021;-47
2022/04/26 10:36:27;;;;;;;10.65;7.57;;;15.60;99.90;;;;;;5054083;28;20049;-51
2022/04/26 10:39:14;;;;;;;12.73;7.25;;;15.70;99.90;;;;;;5035719;28;20025;-49
2022/04/26 10:41:41;;;;;;;9.10;7.22;;;15.80;99.90;;;;;;5053817;28;20032;-48
2022/04/26 10:44:13;;;;;;;13.05;7.55;;;15.90;99.90;;;;;;5036063;28;20378;-53
2022/04/26 10:46:50;;;;;;;11.15;7.93;;;16.00;99.90;;;;;;5049222;28;20028;-51
2022/04/26 10:49:25;;;;;;;10.48;7.68;;;16.10;99.90;;;;;;5052067;28;20104;-49
2022/04/26 10:51:51;;;;;;;8.38;6.65;;;16.20;99.90;;;;;;5053577;28;20079;-53
2022/04/26 10:54:45;;;;;;;12.95;7.97;;;16.20;99.90;;;;;;5053421;28;20027;-50
2022/04/26 10:57:16;;;;;;;11.00;7.40;;;16.30;99.90;;;;;;5051907;28;20021;-52
2022/04/26 10:59:42;;;;;;;10.15;7.65;;;16.30;99.90;;;;;;5053048;28;20028;-51
2022/04/26 11:02:14;;;;;;;12.13;7.30;;;16.30;99.90;;;;;;5053381;28;20021;-53
2022/04/26 11:04:39;;;;;;;13.75;7.53;;;16.10;99.90;;;;;;5053079;28;20433;-48
2022/04/26 11:07:11;;;;;;;12.60;6.85;;;16.00;99.90;;;;;;5077042;22;20013;-57
2022/04/26 11:09:49;;;;;;;14.48;7.85;;;16.20;99.90;;;;;;5052809;28;20102;-58
2022/04/26 11:12:17;;;;;;;11.98;7.53;;;16.30;99.90;;;;;;5035819;28;20025;-57
2022/04/26 11:14:43;;;;;;;9.82;6.43;;;16.40;99.90;;;;;;5053741;28;20056;-56
2022/04/26 11:17:09;;;;;;;16.63;8.13;;;16.50;99.90;;;;;;5053594;28;20061;-56
2022/04/26 11:19:39;;;;;;;13.60;8.30;;;16.50;99.90;;;;;;5053770;28;20069;-59
2022/04/26 11:22:14;;;;;;;11.70;7.47;;;16.50;99.90;;;;;;5036664;28;20025;-58
2022/04/26 11:30:14;;;;;;;14.68;7.85;;;16.50;99.90;;;;;;5054006;28;20032;-56
2022/04/26 11:32:44;;;;;;;11.55;7.97;;;16.60;99.90;;;;;;5053888;28;20025;-56
2022/04/26 11:35:10;;;;;;;12.48;7.03;;;16.90;99.90;;;;;;5054234;28;20025;-57
2022/04/26 11:37:43;;;;;;;8.90;7.35;;;17.10;99.90;;;;;;5053902;28;20159;-57
2022/04/26 11:40:09;;;;;;;12.85;7.30;;;17.20;99.90;;;;;;5053441;28;20033;-56
2022/04/26 11:42:35;;;;;;;10.48;7.28;;;17.20;99.90;;;;;;5053384;28;20024;-55
2022/04/26 11:45:02;;;;;;;10.57;7.40;;;17.20;99.90;;;;;;5053679;28;20505;-57
2022/04/26 11:47:43;;;;;;;11.15;7.70;;;17.30;99.90;;;;;;5051491;28;20025;-57
2022/04/26 11:50:35;;;;;;;11.63;7.03;;;17.50;98.50;;;;;;5033931;28;20032;-56
2022/04/26 11:53:09;;;;;;;9.90;6.43;;;17.50;97.80;;;;;;5049230;28;20036;-57
2022/04/26 11:55:43;;;;;;;11.50;6.65;;;17.50;96.50;;;;;;5053276;28;20025;-58
2022/04/26 11:58:36;;;;;;;12.30;6.78;;;17.50;96.30;;;;;;5046910;28;20036;-58
2022/04/26 12:01:03;;;;;;;8.02;6.50;;;17.40;96.50;;;;;;5043768;28;20037;-56
2022/04/26 12:03:45;;;;;;;10.35;6.38;;;17.40;96.10;;;;;;5053667;28;20071;-57
2022/04/26 12:06:13;;;;;;;7.45;5.95;;;17.50;96.70;;;;;;5053243;28;20065;-56
2022/04/26 12:08:47;;;;;;;10.55;6.20;;;17.60;96.10;;;;;;5052376;28;20446;-57
2022/04/26 12:11:16;;;;;;;7.78;6.10;;;17.80;95.50;;;;;;5046145;28;20033;-58
2022/04/26 12:13:42;;;;;;;12.95;6.07;;;17.90;94.50;;;;;;5050344;28;20020;-57
2022/04/26 12:16:20;;;;;;;8.52;5.32;;;17.80;94.40;;;;;;5052243;28;20066;-57
2022/04/26 12:18:49;;;;;;;9.18;6.47;;;17.70;95.10;;;;;;5052749;28;20056;-59
2022/04/26 12:21:14;;;;;;;9.25;6.15;;;17.50;94.70;;;;;;5053490;28;20021;-57
2022/04/26 12:23:40;;;;;;;8.63;6.57;;;17.40;94.80;;;;;;5056053;28;20094;-57
2022/04/26 12:26:07;;;;;;;11.95;6.15;;;17.20;94.50;;;;;;5032180;28;20126;-55
2022/04/26 12:28:43;;;;;;;7.95;5.88;;;17.00;95.70;;;;;;5036067;28;20025;-55
2022/04/26 12:31:25;;;;;;;9.32;6.90;;;17.00;96.10;;;;;;5041863;28;20026;-56
2022/04/26 12:34:12;;;;;;;10.93;6.57;;;17.10;95.60;;;;;;5052183;28;20487;-54
2022/04/26 12:36:51;;;;;;;12.73;7.25;;;17.20;95.10;;;;;;5053759;28;20040;-58
2022/04/26 12:39:17;;;;;;;9.63;6.65;;;17.10;95.00;;;;;;5053709;28;20059;-58
2022/04/26 12:41:48;;;;;;;10.30;7.45;;;17.10;95.10;;;;;;5054663;28;20129;-55
2022/04/26 12:44:13;;;;;;;13.18;7.35;;;16.90;95.20;;;;;;5053880;28;20049;-58
2022/04/26 12:52:53;;;;;;;11.18;7.00;;;16.80;95.90;;;;;;5054256;28;20036;-56
2022/04/26 12:55:32;;;;;;;10.48;7.45;;;16.80;96.50;;;;;;5036561;28;20108;-56
2022/04/26 12:58:12;;;;;;;11.30;8.23;;;16.90;98.10;;;;;;5052673;28;20450;-58
2022/04/26 13:00:45;;;;;;;16.50;8.27;;;16.90;99.40;;;;;;5053613;28;20055;-55
2022/04/26 13:03:18;;;;;;;10.75;8.32;;;17.00;99.30;;;;;;5049230;28;20056;-57
2022/04/26 13:05:50;;;;;;;12.45;7.32;;;17.00;98.80;;;;;;5054278;28;20108;-56
2022/04/26 13:08:18;;;;;;;12.13;8.05;;;17.10;99.10;;;;;;5016504;28;303054;-55
2022/04/26 13:10:45;;;;;;;14.57;9.10;;;17.00;99.50;;;;;;5031327;28;20113;-55
2022/04/26 13:13:12;;;;;;;14.13;8.20;;;16.90;99.90;;;;;;5055935;28;20428;-57
2022/04/26 13:15:38;;;;;;;14.40;9.60;;;16.80;99.90;;;;;;5054907;28;20075;-55
2022/04/26 13:18:05;;;;;;;14.85;9.05;;;16.80;99.90;;;;;;5053137;28;20134;-58
2022/04/26 13:20:31;;;;;;;15.63;9.27;;;16.60;99.90;;;;;;5054669;28;20028;-58
2022/04/26 13:22:57;;;;;;;14.40;9.95;;;16.50;99.90;;;;;;5036480;28;20033;-57
2022/04/26 13:25:23;;;;;;;16.60;9.23;;;16.60;99.90;;;;;;5052061;28;20028;-57
2022/04/26 13:27:48;;;;;;;14.90;9.13;;;16.70;99.90;;;;;;5055802;28;20028;-57
2022/04/26 13:30:15;;;;;;;18.95;8.93;;;16.80;99.90;;;;;;5056030;28;20029;-56
2022/04/26 13:32:42;;;;;;;15.02;9.15;;;16.80;99.90;;;;;;5055776;28;20060;-57
2022/04/26 13:35:08;;;;;;;18.30;10.15;;;17.10;99.90;;;;;;5038045;28;20025;-56
2022/04/26 13:37:35;;;;;;;17.48;9.70;;;17.10;99.90;;;;;;5054467;28;20028;-59
2022/04/26 13:40:02;;;;;;;18.77;8.95;;;17.00;99.90;;;;;;5046849;28;20095;-56
2022/04/26 13:42:30;;;;;;;17.33;8.73;;;17.00;99.90;;;;;;5036161;28;20494;-58
2022/04/26 13:44:56;;;;;;;13.48;8.68;;;17.00;99.90;;;;;;5048009;28;20063;-57
2022/04/26 13:47:22;;;;;;;14.40;8.50;;;16.90;99.90;;;;;;5055986;28;20478;-57
2022/04/26 13:49:48;;;;;;;14.93;8.85;;;16.90;99.90;;;;;;5056414;28;20052;-58
2022/04/26 13:52:13;;;;;;;15.40;8.98;;;16.80;99.90;;;;;;5055871;28;20056;-57
2022/04/26 13:54:41;;;;;;;20.90;8.52;;;16.90;99.90;;;;;;5055848;28;20070;-57
2022/04/26 13:57:07;;;;;;;19.92;9.00;;;16.90;99.90;;;;;;5049197;28;20036;-56
2022/04/26 13:59:33;;;;;;;15.32;7.85;;;17.00;99.90;;;;;;5040412;28;20025;-60
2022/04/26 14:01:58;;;;;;;14.48;8.00;;;16.80;99.90;;;;;;5049083;28;20497;-58
2022/04/26 14:04:24;;;;;;;16.40;8.70;;;16.80;99.90;;;;;;5040444;28;20032;-56
2022/04/26 14:06:49;;;;;;;12.07;7.55;;;16.40;99.90;;;;;;5055192;28;20083;-55
2022/04/26 14:09:17;;;;;;;15.23;8.70;;;16.30;99.90;;;;;;5055213;28;20095;-58
2022/04/26 14:11:45;;;;;;;9.27;7.43;;;16.00;99.90;;;;;;5053302;28;20394;-58
2022/04/26 14:22:24;;;;;;;13.20;9.15;;;16.10;99.90;;;;;;5054089;28;20410;-55
2022/04/26 14:24:53;;;;;;;14.50;8.93;;;16.00;99.90;;;;;;5035615;28;20036;-57
2022/04/26 14:27:20;;;;;;;15.35;9.15;;;16.00;99.90;;;;;;5054522;28;20017;-57
2022/04/26 14:29:45;;;;;;;18.95;8.88;;;16.00;99.90;;;;;;5053998;28;20021;-57
2022/04/26 14:32:12;;;;;;;14.30;8.85;;;16.00;99.90;;;;;;5054230;28;20036;-58
2022/04/26 14:34:39;;;;;;;16.85;8.80;;;15.90;99.90;;;;;;5053225;28;20032;-58
2022/04/26 14:37:05;;;;;;;14.38;8.52;;;15.70;99.90;;;;;;5054331;28;20024;-57
2022/04/26 14:39:31;;;;;;;13.27;8.18;;;15.60;99.90;;;;;;5036353;28;20029;-56
2022/04/26 14:41:57;;;;;;;18.92;8.90;;;15.50;99.90;;;;;;5054496;28;20374;-58
2022/04/26 14:44:22;;;;;;;13.63;8.88;;;15.50;99.90;;;;;;5054001;28;20072;-56
2022/04/26 14:46:48;;;;;;;14.30;9.32;;;15.60;99.90;;;;;;5036605;28;20031;-56
2022/04/26 14:49:13;;;;;;;15.60;7.88;;;15.40;99.90;;;;;;5052394;28;20060;-57
2022/04/26 14:51:39;;;;;;;18.02;8.40;;;15.40;99.90;;;;;;5052699;28;20552;-57
2022/04/26 14:54:05;;;;;;;15.25;8.70;;;15.50;99.90;;;;;;5054307;28;20417;-56
2022/04/26 14:56:30;;;;;;;11.75;7.72;;;15.50;99.90;;;;;;5054385;28;20048;-57
2022/04/26 14:58:57;;;;;;;20.60;8.95;;;15.60;99.90;;;;;;5054118;28;20394;-57
2022/04/26 15:01:30;;;;;;;16.90;9.98;;;15.60;99.90;;;;;;5054026;28;20434;-57
2022/04/26 15:03:56;;;;;;;18.90;9.80;;;15.50;99.90;;;;;;5053524;28;20112;-57
2022/04/26 15:06:22;;;;;;;21.25;9.13;;;15.50;99.90;;;;;;5054499;28;20028;-58
2022/04/26 15:11:32;;;;;;;13.15;8.35;;;15.50;99.90;;;;;;5053158;28;20171;-58
2022/04/26 15:16:46;;;;;;;11.68;7.65;;;15.20;99.90;;;;;;5053374;28;20112;-58
2022/04/26 15:19:13;;;;;;;13.27;8.40;;;15.20;99.90;;;;;;5052229;28;20029;-56
2022/04/26 15:21:42;;;;;;;13.45;8.68;;;15.20;99.90;;;;;;5054087;28;20032;-58
2022/04/26 15:24:08;;;;;;;17.75;8.52;;;15.10;99.90;;;;;;5051972;28;20547;-56
2022/04/26 15:26:34;;;;;;;15.10;7.45;;;15.00;99.90;;;;;;5053358;28;20047;-59
2022/04/26 15:29:00;;;;;;;11.52;7.35;;;14.80;99.90;;;;;;5051836;28;20044;-58
2022/04/26 15:31:26;;;;;;;12.80;8.63;;;14.80;99.90;;;;;;5053674;28;20021;-59
2022/04/26 15:33:52;;;;;;;14.15;7.88;;;14.90;99.90;;;;;;5053755;28;20079;-58
2022/04/26 15:36:19;;;;;;;18.02;7.70;;;15.00;99.90;;;;;;5054083;28;20025;-57
2022/04/26 15:38:45;;;;;;;11.00;7.72;;;15.00;99.90;;;;;;5036392;28;20063;-57
2022/04/26 15:41:12;;;;;;;13.18;8.25;;;15.10;99.90;;;;;;5054225;28;20485;-58
2022/04/26 15:43:39;;;;;;;11.90;7.68;;;15.10;99.90;;;;;;5053249;28;20031;-58
2022/04/26 15:46:09;;;;;;;11.18;6.95;;;15.10;99.90;;;;;;5052293;28;20032;-58
2022/04/26 15:48:39;;;;;;;16.17;7.88;;;15.00;99.90;;;;;;5052100;28;20021;-59
2022/04/26 15:51:05;;;;;;;16.60;8.32;;;14.90;99.90;;;;;;5052888;28;20063;-59
2022/04/26 15:53:31;;;;;;;14.60;8.30;;;14.80;99.90;;;;;;5051922;28;20478;-59
2022/04/26 15:55:56;;;;;;;14.70;7.65;;;14.70;99.90;;;;;;5051189;28;20031;-58
2022/04/26 15:58:22;;;;;;;14.50;7.47;;;14.70;99.90;;;;;;5051242;28;20020;-59
2022/04/26 16:00:48;;;;;;;18.85;9.40;;;14.70;99.90;;;;;;5033231;28;20028;-59
2022/04/26 16:03:13;;;;;;;18.75;8.25;;;14.80;99.90;;;;;;5034919;28;20036;-59
2022/04/26 16:05:41;;;;;;;21.00;7.60;;;15.00;99.90;;;;;;5052961;28;20021;-58
2022/04/26 16:08:07;;;;;;;10.82;6.95;;;15.00;99.90;;;;;;5052214;28;20029;-56
2022/04/26 16:21:30;;;;;;;15.63;8.30;;;14.10;99.90;;;;;;5053220;28;20092;-56
2022/04/26 16:23:57;;;;;;;12.27;6.72;;;14.10;99.90;;;;;;5034305;28;20017;-59
2022/04/26 16:26:24;;;;;;;15.27;7.13;;;14.10;99.90;;;;;;5035027;28;20061;-59
2022/04/26 16:28:51;;;;;;;12.27;5.75;;;14.00;99.90;;;;;;5053718;28;20027;-57
2022/04/26 16:31:19;;;;;;;12.43;6.13;;;13.90;99.90;;;;;;5053413;28;20013;-58
2022/04/26 16:33:44;;;;;;;13.13;6.18;;;13.90;99.90;;;;;;5052014;28;20469;-58
2022/04/26 16:36:11;;;;;;;12.77;5.80;;;13.80;99.90;;;;;;5054089;28;20029;-58
2022/04/26 16:38:37;;;;;;;17.23;7.38;;;13.80;99.90;;;;;;5053549;28;20040;-58
2022/04/26 16:41:06;;;;;;;13.90;6.50;;;13.70;99.90;;;;;;5035625;28;20067;-58
2022/04/26 16:43:36;;;;;;;12.57;5.60;;;13.70;99.90;;;;;;5052048;28;20017;-59
2022/04/26 16:46:02;;;;;;;8.75;5.40;;;13.50;99.90;;;;;;5052689;28;20517;-57
2022/04/26 16:48:28;;;;;;;14.48;6.80;;;13.40;99.90;;;;;;5052890;28;20025;-59
2022/04/26 16:50:54;;;;;;;8.38;4.75;;;13.20;99.90;;;;;;5053717;28;20401;-58
2022/04/26 16:53:20;;;;;;;15.48;4.78;;;13.10;99.90;;;;;;5035500;28;20104;-58
2022/04/26 16:55:46;;;;;;;13.60;4.90;;;13.00;99.90;;;;;;5052879;28;20029;-59
2022/04/26 16:58:13;;;;;;;12.10;4.97;;;12.90;99.90;;;;;;5052832;28;20032;-57
2022/04/26 17:00:41;;;;;;;13.70;5.03;;;12.80;99.90;;;;;;5051896;28;20079;-59
2022/04/26 17:03:06;;;;;;;13.60;6.47;;;12.80;99.90;;;;;;5034651;28;20074;-59
2022/04/26 17:05:32;;;;;;;13.30;5.35;;;12.90;99.90;;;;;;5053100;28;20108;-57